Time;durP1;ratioP1;P1;durP2;ratioP2;P2;SDS_P1;SDS_P2;PMS_P1;PMS_P2;Temp;Humidity;BMP_temperature;BMP_pressure;BME280_temperature;BME280_humidity;BME280_pressure;Samples;Min_cycle;Max_cycle;Signal;HPM_P1;HPM_P2
2024/03/09 00:00:42;;;;;;;22.13;12.57;;;;;;;5.01;50.40;100696.53;5068159;28;20712;-65
2024/03/09 00:03:12;;;;;;;23.43;11.57;;;;;;;5.00;50.44;100692.22;5069322;28;20212;-67
2024/03/09 00:05:41;;;;;;;24.20;12.20;;;;;;;5.01;50.48;100688.84;5068819;28;20201;-68
2024/03/09 00:08:11;;;;;;;21.07;12.00;;;;;;;5.03;50.58;100697.41;5071451;28;20194;-67
2024/03/09 00:10:40;;;;;;;29.03;12.77;;;;;;;5.02;50.49;100693.13;5062972;28;20685;-65
2024/03/09 00:13:10;;;;;;;20.73;12.50;;;;;;;5.00;50.48;100692.22;5064708;28;20279;-69
2024/03/09 00:15:41;;;;;;;24.00;12.97;;;;;;;5.01;50.25;100688.84;5071281;28;20201;-67
2024/03/09 00:18:10;;;;;;;26.47;12.70;;;;;;;5.01;50.23;100691.41;5059899;28;20252;-69
2024/03/09 00:20:38;;;;;;;21.37;12.30;;;;;;;4.99;49.63;100685.41;5071200;28;20641;-66
2024/03/09 00:23:07;;;;;;;22.83;13.23;;;;;;;5.01;49.74;100681.19;5069025;28;20205;-66
2024/03/09 00:25:37;;;;;;;25.40;12.93;;;;;;;5.00;49.30;100689.66;5070900;28;20229;-73
2024/03/09 00:28:06;;;;;;;24.80;12.83;;;;;;;4.99;49.38;100685.41;5069103;28;20662;-70
2024/03/09 00:30:35;;;;;;;26.43;12.20;;;;;;;4.94;49.89;100684.44;5065116;28;20197;-65
2024/03/09 00:33:06;;;;;;;21.53;11.97;;;;;;;4.92;50.15;100678.44;5072199;28;20209;-66
2024/03/09 00:35:36;;;;;;;25.87;14.43;;;;;;;4.90;49.84;100680.97;5070625;28;20292;-66
2024/03/09 00:38:04;;;;;;;25.10;14.37;;;;;;;4.89;49.45;100678.34;5069171;28;20243;-66
2024/03/09 00:40:34;;;;;;;23.73;13.53;;;;;;;4.89;49.58;100673.25;5068057;28;20259;-65
2024/03/09 00:43:05;;;;;;;28.33;13.43;;;;;;;4.89;49.62;100678.34;5069984;28;20258;-67
2024/03/09 00:45:34;;;;;;;26.13;13.73;;;;;;;4.84;49.56;100671.47;5068282;28;20250;-65
2024/03/09 00:48:04;;;;;;;22.47;13.17;;;;;;;4.86;49.12;100676.63;5067616;28;20259;-66
2024/03/09 00:50:34;;;;;;;27.00;14.90;;;;;;;4.84;49.20;100674.00;5064241;28;20225;-67
2024/03/09 00:53:01;;;;;;;22.77;13.77;;;;;;;4.82;49.53;100673.13;5062726;28;20211;-62
2024/03/09 00:55:31;;;;;;;21.97;13.10;;;;;;;4.79;49.56;100677.31;5070279;28;20216;-63
2024/03/09 00:58:01;;;;;;;23.80;14.30;;;;;;;4.77;49.76;100678.97;5070747;28;20233;-62
2024/03/09 01:00:29;;;;;;;23.37;14.03;;;;;;;4.72;49.71;100675.44;5068074;28;20239;-63
2024/03/09 01:02:57;;;;;;;27.43;15.43;;;;;;;4.69;49.72;100681.34;5066568;28;20217;-63
2024/03/09 01:05:26;;;;;;;26.07;15.33;;;;;;;4.65;49.67;100678.69;5067265;28;20201;-64
2024/03/09 01:07:57;;;;;;;24.83;14.87;;;;;;;4.62;50.23;100670.97;5068025;28;20571;-64
2024/03/09 01:10:25;;;;;;;23.13;14.07;;;;;;;4.63;50.23;100667.56;5062273;28;20301;-61
2024/03/09 01:12:53;;;;;;;25.87;14.90;;;;;;;4.62;49.86;100668.41;5066666;28;20298;-63
2024/03/09 01:15:21;;;;;;;23.50;14.53;;;;;;;4.62;49.95;100665.84;5070172;28;20395;-62
2024/03/09 01:17:49;;;;;;;28.77;15.70;;;;;;;4.60;50.03;100665.81;5070404;28;20215;-61
2024/03/09 01:20:17;;;;;;;31.87;15.90;;;;;;;4.58;50.28;100663.22;5058451;28;20244;-62
2024/03/09 01:22:46;;;;;;;26.10;15.90;;;;;;;4.55;50.43;100657.19;5070553;28;20272;-62
2024/03/09 01:25:15;;;;;;;27.33;15.73;;;;;;;4.51;50.50;100655.41;5064607;28;20209;-63
2024/03/09 01:27:44;;;;;;;25.07;15.37;;;;;;;4.46;50.72;100655.31;5069853;28;20201;-65
2024/03/09 01:30:12;;;;;;;29.20;15.83;;;;;;;4.44;50.47;100653.53;5062650;28;20202;-63
2024/03/09 01:32:43;;;;;;;24.03;15.43;;;;;;;4.41;51.05;100663.66;5067949;28;20258;-62
2024/03/09 01:35:12;;;;;;;28.07;14.67;;;;;;;4.38;51.02;100658.50;5070365;28;20230;-63
2024/03/09 01:37:42;;;;;;;31.73;15.87;;;;;;;4.31;51.18;100655.81;5067623;28;20592;-62
2024/03/09 01:40:11;;;;;;;30.80;15.83;;;;;;;4.31;51.08;100655.81;5070457;28;20685;-64
2024/03/09 01:42:43;;;;;;;25.70;14.53;;;;;;;4.29;51.00;100654.03;5068393;28;20236;-63
2024/03/09 01:45:12;;;;;;;23.37;14.93;;;;;;;4.27;51.43;100648.91;5068623;28;20718;-64
2024/03/09 01:47:41;;;;;;;26.10;15.23;;;;;;;4.23;51.84;100647.09;5066658;28;20595;-63
2024/03/09 01:50:11;;;;;;;25.00;15.03;;;;;;;4.23;51.45;100648.78;5073858;28;20202;-65
2024/03/09 01:52:43;;;;;;;27.17;14.27;;;;;;;4.24;51.74;100651.38;5073298;28;20725;-62
2024/03/09 01:55:11;;;;;;;24.47;14.17;;;;;;;4.21;51.69;100641.13;5074047;28;20198;-67
2024/03/09 01:57:39;;;;;;;22.17;13.53;;;;;;;4.22;51.52;100647.06;5073943;28;20221;-66
2024/03/09 02:00:10;;;;;;;25.30;14.87;;;;;;;4.21;51.67;100645.34;5073507;28;20270;-62
2024/03/09 02:02:38;;;;;;;26.80;15.43;;;;;;;4.19;52.01;100642.75;5068564;28;20662;-60
2024/03/09 02:05:11;;;;;;;22.23;13.27;;;;;;;4.13;52.53;100650.28;5073922;28;20197;-61
2024/03/09 02:07:41;;;;;;;22.53;13.13;;;;;;;4.11;52.59;100644.25;5062512;28;20232;-61
2024/03/09 02:10:11;;;;;;;24.57;15.17;;;;;;;4.07;52.64;100638.22;5073995;28;20662;-63
2024/03/09 02:12:42;;;;;;;21.33;13.47;;;;;;;4.01;52.91;100647.41;5072869;28;20236;-68
2024/03/09 02:15:16;;;;;;;30.27;16.40;;;;;;;3.97;53.57;100640.50;5073668;28;20542;-63
2024/03/09 02:17:47;;;;;;;27.43;14.87;;;;;;;3.90;53.35;100644.59;5071335;28;20746;-63
2024/03/09 02:20:17;;;;;;;27.03;15.73;;;;;;;3.81;54.51;100640.13;5063675;28;20232;-62
2024/03/09 02:22:46;;;;;;;30.27;15.70;;;;;;;3.76;54.68;100641.72;5072602;28;20262;-62
2024/03/09 02:25:18;;;;;;;27.67;14.33;;;;;;;3.69;54.32;100638.97;5069462;28;20212;-59
2024/03/09 02:27:46;;;;;;;28.20;14.77;;;;;;;3.67;55.04;100646.56;5071097;28;20658;-62
2024/03/09 02:30:14;;;;;;;25.03;14.13;;;;;;;3.65;55.50;100643.13;5073962;28;20215;-62
2024/03/09 02:32:43;;;;;;;27.33;15.37;;;;;;;3.62;55.13;100641.34;5072940;28;20245;-62
2024/03/09 02:35:11;;;;;;;21.70;14.67;;;;;;;3.58;55.83;100634.44;5068010;28;20221;-63
2024/03/09 02:37:40;;;;;;;27.37;15.50;;;;;;;3.54;55.79;100637.75;5072264;28;20225;-62
2024/03/09 02:40:11;;;;;;;25.67;14.87;;;;;;;3.50;55.68;100640.16;5072897;28;20772;-62
2024/03/09 02:43:04;;;;;;;29.97;15.07;;;;;;;3.48;56.23;100639.25;5072616;28;20288;-62
2024/03/09 02:45:30;;;;;;;25.90;13.73;;;;;;;3.46;56.54;100648.53;5059953;28;20251;-63
2024/03/09 02:47:58;;;;;;;25.93;14.60;;;;;;;3.42;56.79;100639.09;5072168;28;20203;-63
2024/03/09 02:50:27;;;;;;;25.90;15.03;;;;;;;3.41;56.75;100642.47;5071809;28;20225;-62
2024/03/09 02:52:56;;;;;;;27.80;15.00;;;;;;;3.36;57.60;100647.44;5071252;28;20207;-61
2024/03/09 02:55:26;;;;;;;23.40;14.70;;;;;;;3.33;57.07;100647.34;5072912;28;20241;-62
2024/03/09 02:57:56;;;;;;;29.40;15.03;;;;;;;3.27;57.38;100642.94;5072697;28;20241;-63
2024/03/09 03:00:26;;;;;;;23.70;14.30;;;;;;;3.23;57.61;100642.81;5071407;28;20224;-62
2024/03/09 03:05:42;;;;;;;26.23;14.33;;;;;;;3.18;58.21;100646.94;5067517;28;20218;-61
2024/03/09 03:08:11;;;;;;;23.70;13.70;;;;;;;3.14;58.24;100648.53;5072325;28;20225;-66
2024/03/09 03:10:40;;;;;;;23.97;15.37;;;;;;;3.10;59.14;100636.53;5069468;28;20213;-63
2024/03/09 03:13:10;;;;;;;24.67;14.87;;;;;;;3.07;58.93;100639.00;5072375;28;20693;-63
2024/03/09 03:15:38;;;;;;;25.00;14.57;;;;;;;3.02;59.02;100628.69;5072382;28;20201;-61
2024/03/09 03:18:08;;;;;;;29.50;16.03;;;;;;;3.01;59.67;100633.72;5071800;28;20225;-62
2024/03/09 03:20:37;;;;;;;29.27;16.57;;;;;;;3.01;59.68;100633.72;5069513;28;20198;-62
2024/03/09 03:23:07;;;;;;;31.03;17.17;;;;;;;3.00;59.69;100635.41;5071569;28;20222;-62
2024/03/09 03:25:35;;;;;;;29.23;15.83;;;;;;;2.96;60.35;100633.59;5072392;28;20236;-61
2024/03/09 03:28:05;;;;;;;27.53;15.27;;;;;;;2.96;59.30;100625.97;5071438;28;20205;-60
2024/03/09 03:30:36;;;;;;;30.97;16.13;;;;;;;2.97;59.43;100631.91;5072181;28;20662;-61
2024/03/09 03:33:06;;;;;;;36.43;20.00;;;;;;;2.96;60.01;100627.63;5069442;28;20202;-65
2024/03/09 03:35:34;;;;;;;39.97;22.60;;;;;;;2.94;60.05;100626.72;5071859;28;20205;-65
2024/03/09 03:38:02;;;;;;;31.57;20.40;;;;;;;2.92;60.39;100625.84;5068473;28;20204;-62
2024/03/09 03:40:31;;;;;;;39.70;19.87;;;;;;;2.90;59.83;100621.53;5064218;28;20213;-62
2024/03/09 03:42:59;;;;;;;35.77;19.47;;;;;;;2.89;60.15;100627.47;5068275;28;20681;-63
2024/03/09 03:45:27;;;;;;;29.40;17.43;;;;;;;2.88;59.71;100620.66;5065060;28;20219;-62
2024/03/09 03:47:56;;;;;;;32.17;18.17;;;;;;;2.88;59.78;100619.78;5072001;28;20209;-62
2024/03/09 03:50:24;;;;;;;35.90;18.37;;;;;;;2.89;59.70;100618.97;5071462;28;20211;-62
2024/03/09 03:52:53;;;;;;;32.73;19.07;;;;;;;2.92;60.33;100626.69;5071474;28;20661;-62
2024/03/09 03:55:21;;;;;;;35.53;19.27;;;;;;;2.98;60.61;100628.53;5069000;28;20228;-61
2024/03/09 03:57:50;;;;;;;34.03;19.93;;;;;;;2.96;60.63;100622.56;5071926;28;20650;-62
2024/03/09 04:00:21;;;;;;;39.50;20.00;;;;;;;3.00;60.26;100620.13;5071778;28;20710;-62
2024/03/09 04:02:50;;;;;;;38.13;19.70;;;;;;;3.00;60.79;100617.59;5061066;28;20197;-63
2024/03/09 04:05:19;;;;;;;37.57;21.27;;;;;;;3.01;61.23;100620.97;5060695;28;20781;-62
2024/03/09 04:07:48;;;;;;;33.97;19.43;;;;;;;3.02;60.15;100625.25;5055915;28;20299;-61
2024/03/09 04:10:18;;;;;;;37.37;19.47;;;;;;;3.01;60.55;100624.41;5069889;28;20209;-61
2024/03/09 04:12:47;;;;;;;36.73;21.13;;;;;;;2.98;60.56;100631.94;5061968;28;20232;-62
2024/03/09 04:15:15;;;;;;;32.57;19.77;;;;;;;2.97;60.78;100620.03;5068665;28;20201;-62
2024/03/09 04:17:43;;;;;;;41.77;21.03;;;;;;;2.97;60.82;100619.19;5071115;28;20224;-62
2024/03/09 04:20:15;;;;;;;35.03;20.23;;;;;;;2.96;60.35;100604.72;5071400;28;20217;-60
2024/03/09 04:22:50;;;;;;;35.07;20.00;;;;;;;2.97;60.58;100609.84;5070980;28;20254;-62
2024/03/09 04:25:19;;;;;;;38.13;19.73;;;;;;;2.97;60.72;100614.09;5069553;28;20208;-61
2024/03/09 04:27:50;;;;;;;36.37;19.37;;;;;;;2.93;59.96;100608.03;5069846;28;20201;-61
2024/03/09 04:30:18;;;;;;;36.73;20.03;;;;;;;2.89;60.33;100604.56;5067960;28;20193;-66
2024/03/09 04:32:46;;;;;;;35.07;20.13;;;;;;;2.90;60.17;100608.81;5065786;28;20550;-61
2024/03/09 04:35:14;;;;;;;38.80;19.20;;;;;;;2.90;60.62;100613.91;5070045;28;20251;-65
2024/03/09 04:37:44;;;;;;;35.63;20.30;;;;;;;2.89;60.41;100607.09;5070786;28;20254;-62
2024/03/09 04:40:16;;;;;;;43.83;21.77;;;;;;;2.92;60.06;100606.34;5070798;28;20209;-61
2024/03/09 04:42:46;;;;;;;38.73;20.47;;;;;;;2.92;60.57;100613.09;5070511;28;20216;-61
2024/03/09 04:45:19;;;;;;;40.47;21.13;;;;;;;2.87;60.33;100607.88;5064349;28;20371;-62
2024/03/09 04:47:47;;;;;;;40.90;20.23;;;;;;;2.84;60.07;100603.56;5070260;28;20259;-63
2024/03/09 04:50:19;;;;;;;31.13;18.47;;;;;;;2.84;60.20;100603.56;5069298;28;20250;-62
2024/03/09 04:52:48;;;;;;;39.37;18.97;;;;;;;2.80;60.63;100593.22;5070566;28;20247;-62
2024/03/09 04:55:25;;;;;;;41.13;20.00;;;;;;;2.78;60.54;100603.38;5069574;28;20289;-63
2024/03/09 04:57:54;;;;;;;36.97;20.50;;;;;;;2.77;61.11;100596.56;5071312;28;20692;-67
2024/03/09 05:00:24;;;;;;;34.03;20.37;;;;;;;2.78;61.14;100603.38;5070691;28;20674;-65
2024/03/09 05:02:53;;;;;;;37.40;19.60;;;;;;;2.77;61.46;100596.56;5066554;28;20201;-63
2024/03/09 05:05:21;;;;;;;37.37;20.40;;;;;;;2.81;61.52;100598.38;5065827;28;20202;-61
2024/03/09 05:07:51;;;;;;;39.93;22.63;;;;;;;2.85;61.07;100599.34;5071125;28;20209;-62
2024/03/09 05:10:22;;;;;;;39.50;21.23;;;;;;;2.86;61.14;100601.06;5070604;28;20216;-62
2024/03/09 05:12:54;;;;;;;35.40;20.57;;;;;;;2.84;60.82;100600.16;5070797;28;20326;-61
2024/03/09 05:15:23;;;;;;;40.43;21.37;;;;;;;2.78;61.13;100588.13;5069622;28;20214;-62
2024/03/09 05:17:51;;;;;;;36.30;21.07;;;;;;;2.77;61.62;100596.56;5069742;28;20193;-62
2024/03/09 05:20:23;;;;;;;38.30;21.93;;;;;;;2.76;61.02;100599.94;5065044;28;20216;-63
2024/03/09 05:22:53;;;;;;;36.90;20.67;;;;;;;2.74;61.58;100601.56;5068994;28;20204;-64
2024/03/09 05:25:23;;;;;;;39.27;21.83;;;;;;;2.74;61.61;100598.16;5073067;28;20201;-64
2024/03/09 05:27:51;;;;;;;41.87;21.40;;;;;;;2.78;62.29;100605.06;5073797;28;20643;-61
2024/03/09 05:30:24;;;;;;;41.20;22.87;;;;;;;2.79;61.43;100605.09;5074649;28;20650;-62
2024/03/09 05:32:54;;;;;;;41.03;26.27;;;;;;;2.83;61.56;100598.41;5069241;28;20286;-61
2024/03/09 05:35:26;;;;;;;44.23;24.77;;;;;;;2.90;61.10;100607.97;5078291;28;20197;-62
2024/03/09 05:37:54;;;;;;;39.63;23.13;;;;;;;2.99;61.19;100603.13;5074370;28;20595;-64
2024/03/09 05:40:27;;;;;;;43.37;23.97;;;;;;;2.99;60.44;100592.09;5074365;28;20214;-63
2024/03/09 05:42:55;;;;;;;41.17;23.00;;;;;;;3.12;60.85;100609.41;5071729;28;20204;-61
2024/03/09 05:45:24;;;;;;;44.17;24.93;;;;;;;3.09;60.15;100611.88;5074482;28;20815;-61
2024/03/09 05:47:54;;;;;;;42.27;21.70;;;;;;;3.07;60.85;100616.06;5071708;28;20214;-63
2024/03/09 05:50:23;;;;;;;43.07;22.80;;;;;;;3.06;60.43;100605.03;5073722;28;20197;-62
2024/03/09 05:52:53;;;;;;;41.17;21.97;;;;;;;3.07;60.84;100611.00;5066699;28;20212;-62
2024/03/09 05:55:22;;;;;;;42.00;23.37;;;;;;;3.05;61.42;100600.75;5074149;28;20622;-63
2024/03/09 05:57:53;;;;;;;44.57;23.13;;;;;;;3.08;60.69;100607.63;5073848;28;20834;-62
2024/03/09 06:00:25;;;;;;;42.40;24.03;;;;;;;3.10;61.80;100611.06;5069167;28;20308;-64
2024/03/09 06:02:54;;;;;;;43.97;23.90;;;;;;;3.15;61.17;100615.47;5075074;28;20207;-63
2024/03/09 06:05:24;;;;;;;40.07;23.00;;;;;;;3.24;60.56;100609.78;5073022;28;20197;-63
2024/03/09 06:07:55;;;;;;;47.10;22.80;;;;;;;3.31;60.89;100611.63;5072186;28;20212;-62
2024/03/09 06:10:24;;;;;;;41.53;23.27;;;;;;;3.36;60.41;100609.22;5063107;28;20271;-61
2024/03/09 06:12:54;;;;;;;39.97;24.57;;;;;;;3.44;60.38;100609.44;5072869;28;20260;-61
2024/03/09 06:15:23;;;;;;;43.73;24.60;;;;;;;3.50;60.25;100607.91;5073504;28;20216;-62
2024/03/09 06:17:54;;;;;;;39.07;24.93;;;;;;;3.54;60.28;100609.72;5068982;28;20262;-63
2024/03/09 06:20:27;;;;;;;38.87;24.63;;;;;;;3.56;59.86;100602.09;5073556;28;20205;-66
2024/03/09 06:22:56;;;;;;;41.93;25.27;;;;;;;3.59;60.72;100605.59;5072807;28;21005;-61
2024/03/09 06:25:26;;;;;;;41.63;24.27;;;;;;;3.63;60.07;100614.19;5072548;28;20213;-62
2024/03/09 06:27:58;;;;;;;50.53;24.47;;;;;;;3.69;60.03;100613.50;5073020;28;20209;-62
2024/03/09 06:30:26;;;;;;;44.87;24.83;;;;;;;3.77;59.44;100606.88;5072775;28;20228;-61
2024/03/09 06:32:59;;;;;;;42.63;25.20;;;;;;;3.86;59.20;100607.97;5071961;28;20292;-62
2024/03/09 06:35:30;;;;;;;42.43;23.23;;;;;;;3.94;59.19;100604.72;5064292;28;20674;-64
2024/03/09 06:38:00;;;;;;;37.83;22.50;;;;;;;4.03;58.54;100602.41;5075321;28;20193;-63
2024/03/09 06:40:30;;;;;;;42.77;22.43;;;;;;;4.12;58.89;100602.63;5072948;28;20217;-64
2024/03/09 06:43:01;;;;;;;40.77;22.97;;;;;;;4.19;58.30;100606.19;5070723;28;20212;-64
2024/03/09 06:45:29;;;;;;;38.97;22.37;;;;;;;4.27;58.67;100600.47;5063887;28;20228;-64
2024/03/09 06:47:58;;;;;;;43.60;22.97;;;;;;;4.34;58.36;100602.31;5068563;28;20210;-64
2024/03/09 06:50:27;;;;;;;44.57;23.63;;;;;;;4.49;58.11;100600.91;5065339;28;20728;-64
2024/03/09 06:52:55;;;;;;;44.23;23.10;;;;;;;4.67;57.83;100601.31;5077792;28;20212;-67
2024/03/09 06:55:25;;;;;;;43.57;23.13;;;;;;;4.96;57.88;100595.94;5073421;28;20208;-67
2024/03/09 06:57:54;;;;;;;41.37;22.70;;;;;;;5.29;57.13;100594.03;5066211;28;20781;-64
2024/03/09 07:00:28;;;;;;;39.40;22.90;;;;;;;5.71;56.41;100603.31;5070690;28;20278;-64
2024/03/09 07:02:58;;;;;;;39.83;22.30;;;;;;;6.11;56.03;100600.56;5053168;28;20780;-66
2024/03/09 07:05:27;;;;;;;39.47;20.33;;;;;;;6.50;54.93;100595.19;5067278;28;20232;-66
2024/03/09 07:07:56;;;;;;;34.47;19.77;;;;;;;6.83;53.72;100596.47;5064634;28;20201;-64
2024/03/09 07:10:24;;;;;;;34.60;19.93;;;;;;;7.16;52.68;100591.75;5072544;28;20643;-69
2024/03/09 07:12:52;;;;;;;32.83;19.67;;;;;;;7.52;51.60;100599.81;5069003;28;20225;-64
2024/03/09 07:15:22;;;;;;;32.93;19.73;;;;;;;7.91;51.39;100599.28;5062014;28;20197;-64
2024/03/09 07:17:53;;;;;;;30.17;19.53;;;;;;;8.11;47.41;100586.63;5070046;28;20201;-65
2024/03/09 07:20:23;;;;;;;36.30;19.67;;;;;;;8.18;48.09;100591.81;5067589;28;20216;-69
2024/03/09 07:22:52;;;;;;;31.73;20.37;;;;;;;8.36;46.49;100593.66;5071675;28;20202;-65
2024/03/09 07:25:23;;;;;;;34.77;21.10;;;;;;;8.60;46.75;100598.06;5078282;28;20213;-65
2024/03/09 07:27:54;;;;;;;32.77;19.07;;;;;;;9.01;46.00;100593.97;5067471;28;20204;-64
2024/03/09 07:30:23;;;;;;;31.07;17.97;;;;;;;9.48;45.97;100596.69;5048929;28;20278;-65
2024/03/09 07:32:54;;;;;;;38.17;21.27;;;;;;;10.05;45.17;100597.59;5043621;28;20220;-64
2024/03/09 07:35:27;;;;;;;36.03;19.07;;;;;;;10.76;43.65;100588.00;5072122;28;20296;-62
2024/03/09 07:37:58;;;;;;;29.50;18.00;;;;;;;11.54;42.37;100586.75;5066623;28;20685;-64
2024/03/09 07:40:31;;;;;;;29.43;18.83;;;;;;;12.46;39.95;100579.09;5052156;28;20315;-65
2024/03/09 07:43:00;;;;;;;34.67;19.47;;;;;;;13.41;37.71;100577.06;5071379;28;20193;-65
2024/03/09 07:45:29;;;;;;;30.73;20.53;;;;;;;14.42;34.16;100578.81;5067231;28;20545;-67
2024/03/09 07:48:01;;;;;;;27.13;18.53;;;;;;;15.28;32.08;100574.50;5070711;28;20540;-66
2024/03/09 07:50:29;;;;;;;31.98;18.38;;;;;;;16.13;31.71;100575.94;5069523;28;20642;-66
2024/03/09 07:52:58;;;;;;;31.48;17.98;;;;;;;16.94;30.40;100578.94;5071996;28;20235;-65
2024/03/09 07:55:26;;;;;;;29.17;18.42;;;;;;;17.39;28.87;100571.47;5071596;28;20201;-66
2024/03/09 07:57:57;;;;;;;24.83;17.52;;;;;;;17.66;27.99;100574.09;5058841;28;20210;-66
2024/03/09 08:00:44;;;;;;;26.63;18.85;;;;;;;18.06;27.49;100563.22;5064782;28;20216;-66
2024/03/09 08:03:14;;;;;;;29.85;19.35;;;;;;;18.20;26.97;100565.38;5062421;28;20209;-66
2024/03/09 08:05:42;;;;;;;26.30;18.50;;;;;;;18.25;26.41;100560.84;5068840;28;20558;-66
2024/03/09 08:08:11;;;;;;;26.45;19.48;;;;;;;18.47;26.26;100563.53;5063543;28;20206;-69
2024/03/09 08:10:46;;;;;;;31.65;20.40;;;;;;;18.71;25.82;100563.59;5065964;28;20193;-66
2024/03/09 08:13:16;;;;;;;29.05;20.27;;;;;;;18.97;24.77;100555.66;5059736;28;20235;-67
2024/03/09 08:15:45;;;;;;;30.45;20.85;;;;;;;19.15;24.29;100561.94;5058587;28;20200;-65
2024/03/09 08:18:15;;;;;;;28.77;19.48;;;;;;;19.02;23.91;100565.91;5075832;28;20618;-66
2024/03/09 08:20:43;;;;;;;31.88;20.88;;;;;;;18.57;24.35;100564.06;5071517;28;20237;-67
2024/03/09 08:23:12;;;;;;;30.92;20.85;;;;;;;17.93;25.14;100561.97;5071710;28;20673;-68
2024/03/09 08:25:41;;;;;;;33.35;21.55;;;;;;;17.37;26.01;100559.38;5070726;28;20296;-66
2024/03/09 08:28:12;;;;;;;33.58;20.67;;;;;;;16.76;27.10;100559.50;5071239;28;20209;-67
2024/03/09 08:30:42;;;;;;;30.33;22.70;;;;;;;16.19;27.60;100562.75;5071518;28;20316;-66
2024/03/09 08:33:10;;;;;;;28.70;20.83;;;;;;;15.60;28.57;100558.16;5066348;28;20241;-66
2024/03/09 08:35:39;;;;;;;31.42;20.85;;;;;;;15.28;29.23;100556.31;5064384;28;20205;-65
2024/03/09 08:38:07;;;;;;;25.00;16.90;;;;;;;14.54;29.01;100561.34;5070261;28;20209;-66
2024/03/09 08:40:35;;;;;;;29.27;18.70;;;;;;;13.61;29.79;100562.06;5071361;28;20212;-66
2024/03/09 08:43:06;;;;;;;29.83;18.80;;;;;;;13.19;31.04;100555.78;5071470;28;20205;-65
2024/03/09 08:45:34;;;;;;;28.37;18.53;;;;;;;12.95;32.12;100554.38;5064119;28;20270;-65
2024/03/09 08:48:04;;;;;;;32.90;18.40;;;;;;;12.56;32.62;100551.41;5070312;28;20209;-64
2024/03/09 08:50:34;;;;;;;24.40;16.63;;;;;;;12.14;32.56;100557.88;5066285;28;20554;-67
2024/03/09 08:53:04;;;;;;;30.77;16.97;;;;;;;11.57;34.11;100556.63;5080074;28;20208;-66
2024/03/09 08:55:33;;;;;;;23.77;15.73;;;;;;;11.38;34.70;100552.47;5059209;28;20227;-66
2024/03/09 08:58:01;;;;;;;20.97;14.43;;;;;;;11.26;34.37;100565.41;5067947;28;20205;-67
2024/03/09 09:00:29;;;;;;;20.23;12.53;;;;;;;11.11;34.59;100558.63;5070854;28;20205;-67
2024/03/09 09:02:59;;;;;;;22.53;12.87;;;;;;;10.99;34.57;100556.13;5063329;28;20279;-68
2024/03/09 09:05:28;;;;;;;19.67;13.00;;;;;;;10.95;34.63;100555.28;5064296;28;20247;-65
2024/03/09 09:07:58;;;;;;;20.63;14.00;;;;;;;10.91;34.93;100556.16;5062000;28;20705;-66
2024/03/09 09:10:28;;;;;;;21.97;14.00;;;;;;;11.01;35.44;100554.38;5075515;28;20567;-67
2024/03/09 09:12:56;;;;;;;25.77;14.40;;;;;;;11.24;35.50;100546.53;5063186;28;20229;-65
2024/03/09 09:15:25;;;;;;;25.10;14.23;;;;;;;11.19;34.85;100543.97;5075791;28;20288;-67
2024/03/09 09:17:55;;;;;;;21.70;14.13;;;;;;;10.99;34.86;100550.97;5069439;28;20201;-66
2024/03/09 09:20:24;;;;;;;20.07;13.70;;;;;;;10.76;35.94;100539.03;5067393;28;20201;-66
2024/03/09 09:22:53;;;;;;;20.03;13.60;;;;;;;10.50;35.78;100548.59;5069617;28;20221;-65
2024/03/09 09:25:25;;;;;;;18.67;12.93;;;;;;;10.21;36.47;100549.50;5067157;28;20229;-66
2024/03/09 09:28:01;;;;;;;20.10;12.70;;;;;;;9.85;36.97;100553.81;5064210;28;20659;-66
2024/03/09 09:30:29;;;;;;;17.43;11.67;;;;;;;9.67;37.68;100553.81;5071528;28;20205;-66
2024/03/09 09:32:58;;;;;;;18.33;10.87;;;;;;;9.46;37.91;100549.50;5070579;28;20194;-66
2024/03/09 09:35:26;;;;;;;15.53;10.00;;;;;;;9.21;37.46;100556.34;5070834;28;20251;-67
2024/03/09 09:37:57;;;;;;;14.53;10.73;;;;;;;9.06;38.39;100554.59;5067937;28;20216;-66
2024/03/09 09:40:27;;;;;;;19.10;12.10;;;;;;;8.92;39.03;100545.97;5070444;28;20213;-66
2024/03/09 09:42:59;;;;;;;19.80;10.43;;;;;;;8.77;38.67;100545.94;5068131;28;20702;-67
2024/03/09 09:45:34;;;;;;;16.50;10.17;;;;;;;8.70;39.27;100547.63;5067326;28;20604;-65
2024/03/09 09:48:02;;;;;;;17.77;11.17;;;;;;;8.67;40.03;100552.72;5059062;28;20206;-66
2024/03/09 09:50:35;;;;;;;18.83;11.00;;;;;;;8.66;39.99;100551.03;5076529;28;20666;-65
2024/03/09 09:53:07;;;;;;;19.00;11.43;;;;;;;8.63;40.24;100544.16;5069226;28;21676;-65
2024/03/09 09:55:37;;;;;;;17.67;12.07;;;;;;;8.58;40.67;100538.16;5069150;28;20288;-65
2024/03/09 09:58:06;;;;;;;18.10;11.73;;;;;;;8.59;40.36;100532.16;5069836;28;20696;-65
2024/03/09 10:00:37;;;;;;;17.23;10.20;;;;;;;8.61;40.55;100524.44;5068704;28;20587;-64
2024/03/09 10:03:05;;;;;;;15.03;9.63;;;;;;;8.77;40.77;100528.81;5064959;28;20209;-64
2024/03/09 10:05:33;;;;;;;14.70;9.30;;;;;;;8.91;40.47;100528.81;5061543;28;20662;-64
2024/03/09 10:08:04;;;;;;;16.23;10.23;;;;;;;9.01;39.66;100520.28;5069349;28;20745;-62
2024/03/09 10:10:35;;;;;;;16.00;10.00;;;;;;;9.25;39.70;100522.06;5072544;28;20213;-65
2024/03/09 10:13:11;;;;;;;13.83;9.40;;;;;;;9.53;38.24;100522.94;5063616;28;20237;-64
2024/03/09 10:15:43;;;;;;;12.63;8.97;;;;;;;9.83;37.33;100513.50;5072174;28;20208;-65
2024/03/09 10:18:12;;;;;;;13.40;8.43;;;;;;;9.96;35.11;100515.19;5061484;28;20605;-64
2024/03/09 10:20:40;;;;;;;11.73;8.13;;;;;;;10.06;35.56;100510.91;5049623;28;20202;-65
2024/03/09 10:23:11;;;;;;;14.03;9.33;;;;;;;10.18;36.07;100512.59;5053192;28;20620;-65
2024/03/09 10:25:41;;;;;;;15.00;9.43;;;;;;;10.40;35.69;100499.66;5068734;28;20198;-66
2024/03/09 10:28:11;;;;;;;14.47;9.90;;;;;;;10.67;34.88;100496.97;5069005;28;20216;-65
2024/03/09 10:30:41;;;;;;;14.03;9.17;;;;;;;10.77;34.52;100493.50;5078082;28;20676;-63
2024/03/09 10:33:11;;;;;;;14.13;9.43;;;;;;;10.75;34.48;100490.06;5073753;28;20613;-63
2024/03/09 10:35:42;;;;;;;13.03;9.10;;;;;;;10.66;34.88;100493.56;5068316;28;20206;-63
2024/03/09 10:38:12;;;;;;;13.93;9.27;;;;;;;10.60;35.01;100489.31;5067090;28;20204;-64
2024/03/09 10:40:41;;;;;;;14.90;9.47;;;;;;;10.51;34.86;100493.63;5065959;28;20639;-64
2024/03/09 10:43:13;;;;;;;13.10;8.57;;;;;;;10.39;35.19;100491.97;5072965;28;20304;-67
2024/03/09 10:45:44;;;;;;;12.90;8.50;;;;;;;10.25;34.92;100479.13;5061325;28;20229;-64
2024/03/09 10:48:13;;;;;;;13.47;8.93;;;;;;;10.16;34.87;100494.56;5069126;28;20340;-64
2024/03/09 10:50:49;;;;;;;13.93;8.33;;;;;;;9.98;34.31;100480.03;5069102;28;20567;-66
2024/03/09 10:53:35;;;;;;;11.73;8.03;;;;;;;9.80;34.50;100477.50;5071524;28;20201;-65
2024/03/09 10:56:15;;;;;;;15.07;9.47;;;;;;;9.63;34.58;100480.91;5062543;28;20695;-65
2024/03/09 10:58:44;;;;;;;13.43;8.93;;;;;;;9.57;34.99;100473.22;5071120;28;20201;-68
2024/03/09 11:01:17;;;;;;;12.37;8.40;;;;;;;9.60;34.82;100475.78;5073396;28;20658;-65
2024/03/09 11:03:49;;;;;;;16.77;10.03;;;;;;;9.72;35.29;100481.75;5059180;28;20221;-66
2024/03/09 11:06:19;;;;;;;14.13;8.93;;;;;;;9.94;34.62;100470.56;5057415;28;20202;-65
2024/03/09 11:08:49;;;;;;;13.33;9.27;;;;;;;10.23;33.96;100464.50;5059988;28;20745;-64
2024/03/09 11:11:18;;;;;;;13.50;9.20;;;;;;;10.54;33.73;100473.00;5073301;28;20255;-64
2024/03/09 11:13:48;;;;;;;20.53;10.10;;;;;;;10.96;33.80;100459.00;5066046;28;20241;-65
2024/03/09 11:16:20;;;;;;;12.93;8.40;;;;;;;11.29;33.10;100455.34;5060568;28;20205;-65
2024/03/09 11:18:55;;;;;;;15.13;8.47;;;;;;;11.63;32.13;100456.75;5066194;28;20197;-64
2024/03/09 11:21:29;;;;;;;11.80;7.23;;;;;;;11.94;31.17;100442.72;5070942;28;20197;-65
2024/03/09 11:23:59;;;;;;;12.53;8.57;;;;;;;12.29;30.81;100438.88;5072347;28;20225;-63
2024/03/09 11:26:28;;;;;;;13.60;8.63;;;;;;;12.55;29.99;100434.22;5071695;28;20210;-65
2024/03/09 11:28:56;;;;;;;13.17;9.27;;;;;;;12.69;28.52;100423.69;5066950;28;20216;-64
2024/03/09 11:31:29;;;;;;;12.07;8.83;;;;;;;12.40;28.32;100418.06;5067875;28;20899;-64